This is the latest recevied weather packets stored in our database for station/object K1BES. If no packets are shown the sender has not sent any weather packets the latest 10 day(s).
| Time | Temp. | Humidity | Pressure | Rain* | Wind** | Luminosity | Snow |
|---|---|---|---|---|---|---|---|
| 1778077714 | 28.89° C | 71% | 1018.7 hPa | 0 mm | - | 204 W/m² | - |
| 1778077411 | 29.44° C | 69% | 1018.7 hPa | 0 mm | - | 666 W/m² | - |
| 1778077109 | 28.89° C | 71% | 1018.9 hPa | 0 mm | - | 658 W/m² | - |
| 1778076807 | 29.44° C | 69% | 1019 hPa | 0 mm | - | 614 W/m² | - |
| 1778076505 | 29.44° C | 68% | 1018.8 hPa | 0 mm | - | 619 W/m² | - |
| 1778076201 | 28.89° C | 70% | 1018.9 hPa | 0 mm | - | 605 W/m² | - |
| 1778075898 | 28.89° C | 69% | 1018.8 hPa | 0 mm | - | 204 W/m² | - |
| 1778075595 | 28.89° C | 69% | 1018.8 hPa | 0 mm | - | 532 W/m² | - |
| 1778075291 | 28.89° C | 70% | 1018.8 hPa | 0 mm | - | 409 W/m² | - |
| 1778074988 | 28.89° C | 70% | 1018.6 hPa | 0 mm | - | 445 W/m² | - |
| 1778074685 | 28.89° C | 70% | 1018.6 hPa | 0 mm | - | 435 W/m² | - |
| 1778074382 | 28.33° C | 72% | 1018.7 hPa | 0 mm | - | 365 W/m² | - |
| 1778074078 | 28.33° C | 73% | 1018.6 hPa | 0 mm | - | 403 W/m² | - |
| 1778073776 | 27.78° C | 73% | 1018.8 hPa | 0 mm | - | 405 W/m² | - |
| 1778073474 | 27.78° C | 74% | 1018.7 hPa | 0 mm | - | 382 W/m² | - |
| 1778073169 | 27.22° C | 76% | 1018.7 hPa | 0 mm | - | 351 W/m² | - |
| 1778072866 | 27.22° C | 77% | 1018.5 hPa | 0 mm | - | 344 W/m² | - |
| 1778072563 | 27.22° C | 77% | 1018.7 hPa | 0 mm | - | 291 W/m² | - |
| 1778072261 | 26.67° C | 78% | 1018.6 hPa | 0 mm | - | 324 W/m² | - |
| 1778071959 | 26.11° C | 80% | 1018.7 hPa | 0 mm | - | 292 W/m² | - |
| 1778071657 | 26.11° C | 81% | 1018.5 hPa | 0 mm | - | 243 W/m² | - |
| 1778071354 | 25.56° C | 83% | 1018.4 hPa | 0 mm | - | 212 W/m² | - |
| 1778071052 | 25° C | 84% | 1018.7 hPa | 0 mm | - | 158 W/m² | - |
| 1778070750 | 24.44° C | 87% | 1018.3 hPa | 0 mm | - | 131 W/m² | - |
| 1778070446 | 24.44° C | 88% | 1018.4 hPa | 0 mm | - | 114 W/m² | - |
* Rain latest hour (hover to see other rain measurements)
** Current wind speed in m/s (hover to see current wind gust speed)